sensor_id;sensor_type;location;lat;lon;timestamp;P1;durP1;ratioP1;P2;durP2;ratioP2
75787;SDS011;64406;50.024;14.492;2022-12-07T00:00:50;3.17;;;2.10;;
75787;SDS011;64406;50.024;14.492;2022-12-07T00:03:15;1.97;;;1.57;;
75787;SDS011;64406;50.024;14.492;2022-12-07T00:05:41;3.38;;;2.08;;
75787;SDS011;64406;50.024;14.492;2022-12-07T00:08:06;4.37;;;1.97;;
75787;SDS011;64406;50.024;14.492;2022-12-07T00:10:33;2.83;;;1.80;;
75787;SDS011;64406;50.024;14.492;2022-12-07T00:12:59;4.73;;;2.13;;
75787;SDS011;64406;50.024;14.492;2022-12-07T00:15:24;4.57;;;1.80;;
75787;SDS011;64406;50.024;14.492;2022-12-07T00:17:50;5.07;;;1.90;;
75787;SDS011;64406;50.024;14.492;2022-12-07T00:20:16;5.70;;;2.30;;
75787;SDS011;64406;50.024;14.492;2022-12-07T00:22:41;3.97;;;2.10;;
75787;SDS011;64406;50.024;14.492;2022-12-07T00:25:08;3.10;;;2.27;;
75787;SDS011;64406;50.024;14.492;2022-12-07T00:27:34;3.37;;;1.73;;
75787;SDS011;64406;50.024;14.492;2022-12-07T00:29:59;3.03;;;1.93;;
75787;SDS011;64406;50.024;14.492;2022-12-07T00:32:25;2.77;;;2.07;;
75787;SDS011;64406;50.024;14.492;2022-12-07T00:34:51;4.05;;;2.00;;
75787;SDS011;64406;50.024;14.492;2022-12-07T00:37:17;3.20;;;2.07;;
75787;SDS011;64406;50.024;14.492;2022-12-07T00:39:43;4.70;;;2.30;;
75787;SDS011;64406;50.024;14.492;2022-12-07T00:42:08;3.30;;;2.00;;
75787;SDS011;64406;50.024;14.492;2022-12-07T00:44:37;4.10;;;2.10;;
75787;SDS011;64406;50.024;14.492;2022-12-07T00:47:03;3.37;;;2.40;;
75787;SDS011;64406;50.024;14.492;2022-12-07T00:49:29;2.87;;;2.00;;
75787;SDS011;64406;50.024;14.492;2022-12-07T00:51:54;4.03;;;2.33;;
75787;SDS011;64406;50.024;14.492;2022-12-07T00:54:20;4.13;;;1.97;;
75787;SDS011;64406;50.024;14.492;2022-12-07T00:56:46;5.03;;;2.33;;
75787;SDS011;64406;50.024;14.492;2022-12-07T00:59:13;5.93;;;2.67;;
75787;SDS011;64406;50.024;14.492;2022-12-07T01:01:41;3.47;;;2.33;;
75787;SDS011;64406;50.024;14.492;2022-12-07T01:04:07;4.57;;;2.50;;
75787;SDS011;64406;50.024;14.492;2022-12-07T01:06:33;3.07;;;2.00;;
75787;SDS011;64406;50.024;14.492;2022-12-07T01:08:59;4.27;;;2.30;;
75787;SDS011;64406;50.024;14.492;2022-12-07T01:11:26;3.87;;;2.30;;
75787;SDS011;64406;50.024;14.492;2022-12-07T01:13:54;3.17;;;2.10;;
75787;SDS011;64406;50.024;14.492;2022-12-07T01:16:21;3.53;;;2.63;;
75787;SDS011;64406;50.024;14.492;2022-12-07T01:18:49;4.87;;;3.10;;
75787;SDS011;64406;50.024;14.492;2022-12-07T01:21:17;4.37;;;2.40;;
75787;SDS011;64406;50.024;14.492;2022-12-07T01:23:51;3.33;;;2.20;;
75787;SDS011;64406;50.024;14.492;2022-12-07T01:26:18;4.03;;;2.43;;
75787;SDS011;64406;50.024;14.492;2022-12-07T01:28:48;3.63;;;2.50;;
75787;SDS011;64406;50.024;14.492;2022-12-07T01:31:18;4.57;;;2.63;;
75787;SDS011;64406;50.024;14.492;2022-12-07T01:33:46;3.63;;;2.37;;
75787;SDS011;64406;50.024;14.492;2022-12-07T01:36:17;5.07;;;2.87;;
75787;SDS011;64406;50.024;14.492;2022-12-07T01:38:51;4.00;;;2.80;;
75787;SDS011;64406;50.024;14.492;2022-12-07T01:41:22;4.80;;;2.67;;
75787;SDS011;64406;50.024;14.492;2022-12-07T01:46:36;5.40;;;3.10;;
75787;SDS011;64406;50.024;14.492;2022-12-07T01:49:03;7.40;;;2.73;;
75787;SDS011;64406;50.024;14.492;2022-12-07T01:51:31;5.67;;;2.80;;
75787;SDS011;64406;50.024;14.492;2022-12-07T01:53:57;4.73;;;3.17;;
75787;SDS011;64406;50.024;14.492;2022-12-07T01:56:24;4.30;;;2.80;;
75787;SDS011;64406;50.024;14.492;2022-12-07T01:58:52;4.40;;;2.70;;
75787;SDS011;64406;50.024;14.492;2022-12-07T02:01:21;3.90;;;3.10;;
75787;SDS011;64406;50.024;14.492;2022-12-07T02:03:47;4.90;;;2.93;;
75787;SDS011;64406;50.024;14.492;2022-12-07T02:06:15;5.67;;;3.17;;
75787;SDS011;64406;50.024;14.492;2022-12-07T02:08:46;4.27;;;2.70;;
75787;SDS011;64406;50.024;14.492;2022-12-07T02:11:11;4.53;;;3.07;;
75787;SDS011;64406;50.024;14.492;2022-12-07T02:13:38;5.17;;;2.80;;
75787;SDS011;64406;50.024;14.492;2022-12-07T02:16:15;5.27;;;3.07;;
75787;SDS011;64406;50.024;14.492;2022-12-07T02:21:19;5.20;;;3.00;;
75787;SDS011;64406;50.024;14.492;2022-12-07T02:23:51;5.50;;;3.73;;
75787;SDS011;64406;50.024;14.492;2022-12-07T02:32:15;5.07;;;3.13;;
75787;SDS011;64406;50.024;14.492;2022-12-07T02:34:48;3.63;;;2.77;;
75787;SDS011;64406;50.024;14.492;2022-12-07T02:40:07;4.93;;;2.30;;
75787;SDS011;64406;50.024;14.492;2022-12-07T02:42:43;6.90;;;3.00;;
75787;SDS011;64406;50.024;14.492;2022-12-07T02:45:15;4.05;;;2.95;;
75787;SDS011;64406;50.024;14.492;2022-12-07T02:47:45;5.10;;;2.90;;
75787;SDS011;64406;50.024;14.492;2022-12-07T02:50:17;5.13;;;3.10;;
75787;SDS011;64406;50.024;14.492;2022-12-07T02:52:45;7.47;;;3.87;;
75787;SDS011;64406;50.024;14.492;2022-12-07T02:55:11;5.57;;;3.43;;
75787;SDS011;64406;50.024;14.492;2022-12-07T02:58:45;3.97;;;2.50;;
75787;SDS011;64406;50.024;14.492;2022-12-07T03:01:10;8.37;;;3.37;;
75787;SDS011;64406;50.024;14.492;2022-12-07T03:03:38;4.33;;;3.03;;
75787;SDS011;64406;50.024;14.492;2022-12-07T03:06:10;4.13;;;2.73;;
75787;SDS011;64406;50.024;14.492;2022-12-07T03:11:16;4.73;;;2.90;;
75787;SDS011;64406;50.024;14.492;2022-12-07T03:13:49;6.28;;;2.63;;
75787;SDS011;64406;50.024;14.492;2022-12-07T03:16:22;5.85;;;3.38;;
75787;SDS011;64406;50.024;14.492;2022-12-07T03:18:59;6.47;;;3.37;;
75787;SDS011;64406;50.024;14.492;2022-12-07T03:21:33;6.13;;;3.17;;
75787;SDS011;64406;50.024;14.492;2022-12-07T03:24:06;4.00;;;3.20;;
75787;SDS011;64406;50.024;14.492;2022-12-07T03:26:38;5.65;;;3.28;;
75787;SDS011;64406;50.024;14.492;2022-12-07T03:29:15;4.73;;;3.23;;
75787;SDS011;64406;50.024;14.492;2022-12-07T03:31:46;5.97;;;3.47;;
75787;SDS011;64406;50.024;14.492;2022-12-07T03:34:32;5.17;;;3.40;;
75787;SDS011;64406;50.024;14.492;2022-12-07T03:37:12;5.37;;;3.70;;
75787;SDS011;64406;50.024;14.492;2022-12-07T03:40:07;5.87;;;3.90;;
75787;SDS011;64406;50.024;14.492;2022-12-07T03:42:39;4.23;;;3.27;;
75787;SDS011;64406;50.024;14.492;2022-12-07T03:45:05;5.87;;;3.80;;
75787;SDS011;64406;50.024;14.492;2022-12-07T03:52:40;8.23;;;3.97;;
75787;SDS011;64406;50.024;14.492;2022-12-07T03:55:11;8.03;;;3.67;;
75787;SDS011;64406;50.024;14.492;2022-12-07T03:58:01;5.77;;;3.87;;
75787;SDS011;64406;50.024;14.492;2022-12-07T04:00:31;7.00;;;3.77;;
75787;SDS011;64406;50.024;14.492;2022-12-07T04:02:57;6.07;;;3.90;;
75787;SDS011;64406;50.024;14.492;2022-12-07T04:05:23;6.93;;;4.60;;
75787;SDS011;64406;50.024;14.492;2022-12-07T04:07:49;5.40;;;3.83;;
75787;SDS011;64406;50.024;14.492;2022-12-07T04:10:15;5.83;;;3.90;;
75787;SDS011;64406;50.024;14.492;2022-12-07T04:12:41;7.50;;;3.80;;
75787;SDS011;64406;50.024;14.492;2022-12-07T04:15:07;5.90;;;3.90;;
75787;SDS011;64406;50.024;14.492;2022-12-07T04:17:34;6.53;;;4.70;;
75787;SDS011;64406;50.024;14.492;2022-12-07T04:20:00;6.00;;;4.17;;
75787;SDS011;64406;50.024;14.492;2022-12-07T04:22:25;6.27;;;4.03;;
75787;SDS011;64406;50.024;14.492;2022-12-07T04:24:51;7.97;;;4.40;;
75787;SDS011;64406;50.024;14.492;2022-12-07T04:27:17;7.67;;;4.43;;
75787;SDS011;64406;50.024;14.492;2022-12-07T04:29:42;6.30;;;3.53;;
75787;SDS011;64406;50.024;14.492;2022-12-07T04:32:08;8.10;;;4.57;;
75787;SDS011;64406;50.024;14.492;2022-12-07T04:34:34;7.73;;;4.90;;
75787;SDS011;64406;50.024;14.492;2022-12-07T04:36:59;8.37;;;5.03;;
75787;SDS011;64406;50.024;14.492;2022-12-07T04:39:26;6.43;;;3.93;;
75787;SDS011;64406;50.024;14.492;2022-12-07T04:41:53;6.73;;;4.50;;
75787;SDS011;64406;50.024;14.492;2022-12-07T04:44:20;6.70;;;4.23;;
75787;SDS011;64406;50.024;14.492;2022-12-07T04:46:47;6.83;;;4.90;;
75787;SDS011;64406;50.024;14.492;2022-12-07T04:49:14;6.93;;;4.40;;
75787;SDS011;64406;50.024;14.492;2022-12-07T04:51:41;6.60;;;4.00;;
75787;SDS011;64406;50.024;14.492;2022-12-07T04:54:07;9.53;;;5.20;;
75787;SDS011;64406;50.024;14.492;2022-12-07T04:56:33;7.27;;;4.53;;
75787;SDS011;64406;50.024;14.492;2022-12-07T04:59:00;10.33;;;4.80;;
75787;SDS011;64406;50.024;14.492;2022-12-07T05:01:27;8.57;;;5.03;;
75787;SDS011;64406;50.024;14.492;2022-12-07T05:03:52;8.17;;;4.77;;
75787;SDS011;64406;50.024;14.492;2022-12-07T05:06:20;8.37;;;4.90;;
75787;SDS011;64406;50.024;14.492;2022-12-07T05:08:45;8.20;;;5.17;;
75787;SDS011;64406;50.024;14.492;2022-12-07T05:11:11;7.43;;;4.60;;
75787;SDS011;64406;50.024;14.492;2022-12-07T05:13:57;7.90;;;4.90;;
75787;SDS011;64406;50.024;14.492;2022-12-07T05:16:23;10.03;;;5.17;;
75787;SDS011;64406;50.024;14.492;2022-12-07T05:18:50;9.53;;;5.50;;
75787;SDS011;64406;50.024;14.492;2022-12-07T05:21:16;8.00;;;4.97;;
75787;SDS011;64406;50.024;14.492;2022-12-07T05:23:41;7.97;;;5.60;;
75787;SDS011;64406;50.024;14.492;2022-12-07T05:26:07;10.93;;;6.63;;
75787;SDS011;64406;50.024;14.492;2022-12-07T05:28:33;10.53;;;6.13;;
75787;SDS011;64406;50.024;14.492;2022-12-07T05:30:58;11.77;;;6.23;;
75787;SDS011;64406;50.024;14.492;2022-12-07T05:33:24;10.33;;;5.50;;
75787;SDS011;64406;50.024;14.492;2022-12-07T05:35:50;10.83;;;5.93;;
75787;SDS011;64406;50.024;14.492;2022-12-07T05:38:15;11.83;;;6.47;;
75787;SDS011;64406;50.024;14.492;2022-12-07T05:40:42;11.77;;;6.07;;
75787;SDS011;64406;50.024;14.492;2022-12-07T05:43:08;13.47;;;6.77;;
75787;SDS011;64406;50.024;14.492;2022-12-07T05:45:34;13.73;;;7.10;;
75787;SDS011;64406;50.024;14.492;2022-12-07T05:47:59;14.53;;;5.90;;
75787;SDS011;64406;50.024;14.492;2022-12-07T05:50:25;13.07;;;6.27;;
75787;SDS011;64406;50.024;14.492;2022-12-07T05:52:51;11.43;;;6.40;;
75787;SDS011;64406;50.024;14.492;2022-12-07T05:55:16;11.50;;;6.43;;
75787;SDS011;64406;50.024;14.492;2022-12-07T05:57:42;12.93;;;6.73;;
75787;SDS011;64406;50.024;14.492;2022-12-07T06:00:31;9.60;;;5.97;;
75787;SDS011;64406;50.024;14.492;2022-12-07T06:02:56;13.83;;;6.20;;
75787;SDS011;64406;50.024;14.492;2022-12-07T06:05:22;10.60;;;6.13;;
75787;SDS011;64406;50.024;14.492;2022-12-07T06:07:48;10.87;;;6.53;;
75787;SDS011;64406;50.024;14.492;2022-12-07T06:10:14;10.60;;;5.90;;
75787;SDS011;64406;50.024;14.492;2022-12-07T06:12:39;11.57;;;5.93;;
75787;SDS011;64406;50.024;14.492;2022-12-07T06:15:09;11.57;;;6.33;;
75787;SDS011;64406;50.024;14.492;2022-12-07T06:17:35;10.37;;;5.73;;
75787;SDS011;64406;50.024;14.492;2022-12-07T06:20:02;10.87;;;5.50;;
75787;SDS011;64406;50.024;14.492;2022-12-07T06:22:28;10.20;;;5.73;;
75787;SDS011;64406;50.024;14.492;2022-12-07T06:24:54;10.87;;;6.17;;
75787;SDS011;64406;50.024;14.492;2022-12-07T06:27:20;9.70;;;5.63;;
75787;SDS011;64406;50.024;14.492;2022-12-07T06:29:45;10.07;;;5.93;;
75787;SDS011;64406;50.024;14.492;2022-12-07T06:32:11;9.60;;;5.53;;
75787;SDS011;64406;50.024;14.492;2022-12-07T06:34:37;10.77;;;6.17;;
75787;SDS011;64406;50.024;14.492;2022-12-07T06:37:03;10.17;;;5.50;;
75787;SDS011;64406;50.024;14.492;2022-12-07T06:39:29;10.37;;;5.67;;
75787;SDS011;64406;50.024;14.492;2022-12-07T06:41:55;9.50;;;5.17;;
75787;SDS011;64406;50.024;14.492;2022-12-07T06:44:22;9.77;;;5.20;;
75787;SDS011;64406;50.024;14.492;2022-12-07T06:46:48;12.40;;;5.60;;
75787;SDS011;64406;50.024;14.492;2022-12-07T06:49:15;11.93;;;5.97;;
75787;SDS011;64406;50.024;14.492;2022-12-07T06:51:40;12.77;;;5.97;;
75787;SDS011;64406;50.024;14.492;2022-12-07T06:54:08;9.10;;;5.70;;
75787;SDS011;64406;50.024;14.492;2022-12-07T06:56:34;8.23;;;4.40;;
75787;SDS011;64406;50.024;14.492;2022-12-07T06:59:03;10.20;;;6.07;;
75787;SDS011;64406;50.024;14.492;2022-12-07T07:01:31;11.90;;;5.77;;
75787;SDS011;64406;50.024;14.492;2022-12-07T07:03:59;13.17;;;7.10;;
75787;SDS011;64406;50.024;14.492;2022-12-07T07:06:25;11.70;;;6.17;;
75787;SDS011;64406;50.024;14.492;2022-12-07T07:08:51;13.40;;;7.27;;
75787;SDS011;64406;50.024;14.492;2022-12-07T07:11:18;12.00;;;6.20;;
75787;SDS011;64406;50.024;14.492;2022-12-07T07:13:45;8.87;;;6.00;;
75787;SDS011;64406;50.024;14.492;2022-12-07T07:16:12;9.60;;;4.70;;
75787;SDS011;64406;50.024;14.492;2022-12-07T07:18:37;9.07;;;5.47;;
75787;SDS011;64406;50.024;14.492;2022-12-07T07:21:05;10.33;;;5.17;;
75787;SDS011;64406;50.024;14.492;2022-12-07T07:23:30;11.07;;;5.23;;
75787;SDS011;64406;50.024;14.492;2022-12-07T07:25:56;8.07;;;5.10;;
75787;SDS011;64406;50.024;14.492;2022-12-07T07:28:22;10.97;;;6.13;;
75787;SDS011;64406;50.024;14.492;2022-12-07T07:30:48;11.53;;;5.17;;
75787;SDS011;64406;50.024;14.492;2022-12-07T07:33:14;7.83;;;4.57;;
75787;SDS011;64406;50.024;14.492;2022-12-07T07:35:40;9.13;;;5.20;;
75787;SDS011;64406;50.024;14.492;2022-12-07T07:38:06;7.43;;;4.57;;
75787;SDS011;64406;50.024;14.492;2022-12-07T07:40:33;8.43;;;4.53;;
75787;SDS011;64406;50.024;14.492;2022-12-07T07:42:59;7.33;;;4.53;;
75787;SDS011;64406;50.024;14.492;2022-12-07T07:45:25;8.50;;;4.27;;
75787;SDS011;64406;50.024;14.492;2022-12-07T07:47:51;11.00;;;4.53;;
75787;SDS011;64406;50.024;14.492;2022-12-07T07:50:18;8.27;;;4.73;;
75787;SDS011;64406;50.024;14.492;2022-12-07T07:52:45;8.33;;;5.03;;
75787;SDS011;64406;50.024;14.492;2022-12-07T07:55:11;11.60;;;5.10;;
75787;SDS011;64406;50.024;14.492;2022-12-07T07:57:37;7.50;;;4.63;;
75787;SDS011;64406;50.024;14.492;2022-12-07T08:00:04;7.03;;;4.30;;
75787;SDS011;64406;50.024;14.492;2022-12-07T08:02:32;7.33;;;4.30;;
75787;SDS011;64406;50.024;14.492;2022-12-07T08:04:59;6.93;;;4.07;;
75787;SDS011;64406;50.024;14.492;2022-12-07T08:07:25;12.00;;;4.40;;
75787;SDS011;64406;50.024;14.492;2022-12-07T08:09:52;6.83;;;4.60;;
75787;SDS011;64406;50.024;14.492;2022-12-07T08:12:18;10.47;;;5.67;;
75787;SDS011;64406;50.024;14.492;2022-12-07T08:14:43;7.80;;;4.70;;
75787;SDS011;64406;50.024;14.492;2022-12-07T08:17:09;10.67;;;4.80;;
75787;SDS011;64406;50.024;14.492;2022-12-07T08:19:35;9.00;;;4.73;;
75787;SDS011;64406;50.024;14.492;2022-12-07T08:22:00;7.93;;;4.73;;
75787;SDS011;64406;50.024;14.492;2022-12-07T08:24:27;8.60;;;4.33;;
75787;SDS011;64406;50.024;14.492;2022-12-07T08:26:54;7.50;;;4.17;;
75787;SDS011;64406;50.024;14.492;2022-12-07T08:29:19;9.37;;;4.63;;
75787;SDS011;64406;50.024;14.492;2022-12-07T08:31:46;13.67;;;5.80;;
75787;SDS011;64406;50.024;14.492;2022-12-07T08:34:12;9.80;;;4.90;;
75787;SDS011;64406;50.024;14.492;2022-12-07T08:36:41;11.20;;;5.33;;
75787;SDS011;64406;50.024;14.492;2022-12-07T08:39:07;9.10;;;4.80;;
75787;SDS011;64406;50.024;14.492;2022-12-07T08:41:33;9.73;;;5.07;;
75787;SDS011;64406;50.024;14.492;2022-12-07T08:43:59;7.27;;;4.90;;
75787;SDS011;64406;50.024;14.492;2022-12-07T08:46:25;12.50;;;4.93;;
75787;SDS011;64406;50.024;14.492;2022-12-07T08:49:02;8.83;;;4.27;;
75787;SDS011;64406;50.024;14.492;2022-12-07T08:51:31;8.40;;;4.57;;
75787;SDS011;64406;50.024;14.492;2022-12-07T08:53:58;9.50;;;5.30;;
75787;SDS011;64406;50.024;14.492;2022-12-07T08:56:26;9.70;;;5.00;;
75787;SDS011;64406;50.024;14.492;2022-12-07T08:58:52;9.43;;;4.70;;
75787;SDS011;64406;50.024;14.492;2022-12-07T09:01:18;8.80;;;5.20;;
75787;SDS011;64406;50.024;14.492;2022-12-07T09:03:44;10.43;;;5.70;;
75787;SDS011;64406;50.024;14.492;2022-12-07T09:06:09;9.83;;;5.10;;
75787;SDS011;64406;50.024;14.492;2022-12-07T09:08:43;6.17;;;4.50;;
75787;SDS011;64406;50.024;14.492;2022-12-07T09:11:12;9.33;;;5.20;;
75787;SDS011;64406;50.024;14.492;2022-12-07T09:13:38;9.00;;;5.03;;
75787;SDS011;64406;50.024;14.492;2022-12-07T09:16:04;15.33;;;5.73;;
75787;SDS011;64406;50.024;14.492;2022-12-07T09:18:30;8.57;;;5.10;;
75787;SDS011;64406;50.024;14.492;2022-12-07T09:20:56;9.13;;;5.60;;
75787;SDS011;64406;50.024;14.492;2022-12-07T09:23:22;6.43;;;4.33;;
75787;SDS011;64406;50.024;14.492;2022-12-07T09:25:48;8.10;;;4.80;;
75787;SDS011;64406;50.024;14.492;2022-12-07T09:28:14;8.57;;;5.03;;
75787;SDS011;64406;50.024;14.492;2022-12-07T09:30:45;7.77;;;4.67;;
75787;SDS011;64406;50.024;14.492;2022-12-07T09:33:11;8.87;;;5.03;;
75787;SDS011;64406;50.024;14.492;2022-12-07T09:35:37;8.23;;;4.23;;
75787;SDS011;64406;50.024;14.492;2022-12-07T09:38:03;8.50;;;4.80;;
75787;SDS011;64406;50.024;14.492;2022-12-07T09:40:28;9.17;;;5.07;;
75787;SDS011;64406;50.024;14.492;2022-12-07T09:42:54;7.57;;;4.70;;
75787;SDS011;64406;50.024;14.492;2022-12-07T09:45:31;7.97;;;5.13;;
75787;SDS011;64406;50.024;14.492;2022-12-07T09:48:02;8.03;;;4.80;;
75787;SDS011;64406;50.024;14.492;2022-12-07T09:50:30;8.47;;;4.93;;
75787;SDS011;64406;50.024;14.492;2022-12-07T09:53:08;9.50;;;5.33;;
75787;SDS011;64406;50.024;14.492;2022-12-07T09:55:40;7.93;;;5.00;;
75787;SDS011;64406;50.024;14.492;2022-12-07T09:58:12;10.20;;;5.33;;
75787;SDS011;64406;50.024;14.492;2022-12-07T10:00:45;8.83;;;5.33;;
75787;SDS011;64406;50.024;14.492;2022-12-07T10:03:10;11.23;;;5.53;;
75787;SDS011;64406;50.024;14.492;2022-12-07T10:05:47;6.80;;;5.07;;
75787;SDS011;64406;50.024;14.492;2022-12-07T10:08:15;9.00;;;5.17;;
75787;SDS011;64406;50.024;14.492;2022-12-07T10:10:43;8.23;;;4.80;;
75787;SDS011;64406;50.024;14.492;2022-12-07T10:13:14;7.63;;;4.03;;
75787;SDS011;64406;50.024;14.492;2022-12-07T10:15:50;8.97;;;4.60;;
75787;SDS011;64406;50.024;14.492;2022-12-07T10:18:27;7.30;;;4.37;;
75787;SDS011;64406;50.024;14.492;2022-12-07T10:23:34;6.20;;;3.83;;
75787;SDS011;64406;50.024;14.492;2022-12-07T10:26:24;8.00;;;4.53;;
75787;SDS011;64406;50.024;14.492;2022-12-07T10:28:54;7.37;;;4.60;;
75787;SDS011;64406;50.024;14.492;2022-12-07T10:31:22;6.73;;;4.03;;
75787;SDS011;64406;50.024;14.492;2022-12-07T10:33:56;8.97;;;5.03;;
75787;SDS011;64406;50.024;14.492;2022-12-07T10:36:36;5.33;;;3.70;;
75787;SDS011;64406;50.024;14.492;2022-12-07T10:41:52;5.95;;;4.00;;
75787;SDS011;64406;50.024;14.492;2022-12-07T10:44:29;7.07;;;4.53;;
75787;SDS011;64406;50.024;14.492;2022-12-07T10:47:01;7.70;;;3.90;;
75787;SDS011;64406;50.024;14.492;2022-12-07T10:52:24;9.90;;;3.93;;
75787;SDS011;64406;50.024;14.492;2022-12-07T10:55:16;7.27;;;4.20;;
75787;SDS011;64406;50.024;14.492;2022-12-07T11:01:18;6.88;;;4.30;;
75787;SDS011;64406;50.024;14.492;2022-12-07T11:04:03;8.90;;;4.50;;
75787;SDS011;64406;50.024;14.492;2022-12-07T11:15:19;7.47;;;4.43;;
75787;SDS011;64406;50.024;14.492;2022-12-07T11:18:18;8.70;;;5.20;;
75787;SDS011;64406;50.024;14.492;2022-12-07T11:20:53;7.77;;;4.67;;
75787;SDS011;64406;50.024;14.492;2022-12-07T11:26:27;10.30;;;5.40;;
75787;SDS011;64406;50.024;14.492;2022-12-07T11:32:30;7.73;;;4.57;;
75787;SDS011;64406;50.024;14.492;2022-12-07T11:35:21;7.07;;;4.27;;
75787;SDS011;64406;50.024;14.492;2022-12-07T11:37:49;8.13;;;4.67;;
75787;SDS011;64406;50.024;14.492;2022-12-07T11:48:38;9.53;;;4.43;;
75787;SDS011;64406;50.024;14.492;2022-12-07T11:51:10;7.60;;;4.80;;
75787;SDS011;64406;50.024;14.492;2022-12-07T11:53:54;7.57;;;4.47;;
75787;SDS011;64406;50.024;14.492;2022-12-07T11:56:27;7.47;;;4.87;;
75787;SDS011;64406;50.024;14.492;2022-12-07T11:58:55;9.77;;;5.23;;
75787;SDS011;64406;50.024;14.492;2022-12-07T12:06:40;7.90;;;4.33;;
75787;SDS011;64406;50.024;14.492;2022-12-07T12:12:12;9.13;;;4.47;;
75787;SDS011;64406;50.024;14.492;2022-12-07T12:17:32;7.53;;;4.30;;
75787;SDS011;64406;50.024;14.492;2022-12-07T12:23:16;7.17;;;4.27;;
75787;SDS011;64406;50.024;14.492;2022-12-07T12:26:00;7.37;;;4.23;;
75787;SDS011;64406;50.024;14.492;2022-12-07T12:28:40;5.93;;;3.53;;
75787;SDS011;64406;50.024;14.492;2022-12-07T12:31:34;6.67;;;3.53;;
75787;SDS011;64406;50.024;14.492;2022-12-07T12:36:57;5.37;;;3.63;;
75787;SDS011;64406;50.024;14.492;2022-12-07T12:39:23;6.60;;;4.10;;
75787;SDS011;64406;50.024;14.492;2022-12-07T12:46:50;7.87;;;3.97;;
75787;SDS011;64406;50.024;14.492;2022-12-07T12:51:44;4.70;;;3.13;;
75787;SDS011;64406;50.024;14.492;2022-12-07T12:54:20;7.47;;;3.78;;
75787;SDS011;64406;50.024;14.492;2022-12-07T13:01:46;5.13;;;3.03;;
75787;SDS011;64406;50.024;14.492;2022-12-07T13:04:17;5.20;;;3.27;;
75787;SDS011;64406;50.024;14.492;2022-12-07T13:06:44;5.63;;;3.33;;
75787;SDS011;64406;50.024;14.492;2022-12-07T13:09:31;5.15;;;3.42;;
75787;SDS011;64406;50.024;14.492;2022-12-07T13:12:03;6.53;;;3.67;;
75787;SDS011;64406;50.024;14.492;2022-12-07T13:14:53;4.83;;;2.70;;
75787;SDS011;64406;50.024;14.492;2022-12-07T13:19:57;4.90;;;3.13;;
75787;SDS011;64406;50.024;14.492;2022-12-07T13:24:57;5.63;;;3.43;;
75787;SDS011;64406;50.024;14.492;2022-12-07T13:27:27;7.07;;;2.97;;
75787;SDS011;64406;50.024;14.492;2022-12-07T13:29:56;5.00;;;3.10;;
75787;SDS011;64406;50.024;14.492;2022-12-07T13:32:28;5.00;;;2.65;;
75787;SDS011;64406;50.024;14.492;2022-12-07T13:34:54;4.75;;;3.33;;
75787;SDS011;64406;50.024;14.492;2022-12-07T13:39:59;4.93;;;2.87;;
75787;SDS011;64406;50.024;14.492;2022-12-07T13:42:27;7.78;;;3.05;;
75787;SDS011;64406;50.024;14.492;2022-12-07T13:44:54;4.78;;;3.05;;
75787;SDS011;64406;50.024;14.492;2022-12-07T13:47:32;5.32;;;3.17;;
75787;SDS011;64406;50.024;14.492;2022-12-07T13:53:07;4.55;;;3.05;;
75787;SDS011;64406;50.024;14.492;2022-12-07T13:55:38;8.32;;;3.65;;
75787;SDS011;64406;50.024;14.492;2022-12-07T13:58:11;4.23;;;2.63;;
75787;SDS011;64406;50.024;14.492;2022-12-07T14:00:36;10.90;;;4.07;;
75787;SDS011;64406;50.024;14.492;2022-12-07T14:03:04;6.50;;;3.78;;
75787;SDS011;64406;50.024;14.492;2022-12-07T14:06:13;6.47;;;3.63;;
75787;SDS011;64406;50.024;14.492;2022-12-07T14:08:41;5.07;;;3.47;;
75787;SDS011;64406;50.024;14.492;2022-12-07T14:11:09;8.68;;;3.10;;
75787;SDS011;64406;50.024;14.492;2022-12-07T14:13:44;7.53;;;4.03;;
75787;SDS011;64406;50.024;14.492;2022-12-07T14:18:45;6.47;;;3.85;;
75787;SDS011;64406;50.024;14.492;2022-12-07T14:21:14;6.67;;;3.67;;
75787;SDS011;64406;50.024;14.492;2022-12-07T14:23:45;7.47;;;3.97;;
75787;SDS011;64406;50.024;14.492;2022-12-07T14:26:27;6.10;;;3.40;;
75787;SDS011;64406;50.024;14.492;2022-12-07T14:28:53;7.47;;;3.73;;
75787;SDS011;64406;50.024;14.492;2022-12-07T14:32:15;8.60;;;4.63;;
75787;SDS011;64406;50.024;14.492;2022-12-07T14:34:57;12.33;;;5.57;;
75787;SDS011;64406;50.024;14.492;2022-12-07T14:37:24;6.63;;;4.03;;
75787;SDS011;64406;50.024;14.492;2022-12-07T14:39:51;10.50;;;4.70;;
75787;SDS011;64406;50.024;14.492;2022-12-07T14:42:16;8.63;;;4.20;;
75787;SDS011;64406;50.024;14.492;2022-12-07T14:44:43;8.67;;;4.53;;
75787;SDS011;64406;50.024;14.492;2022-12-07T14:47:09;7.13;;;4.13;;
75787;SDS011;64406;50.024;14.492;2022-12-07T14:49:36;8.23;;;4.50;;
75787;SDS011;64406;50.024;14.492;2022-12-07T14:52:03;10.77;;;5.30;;
75787;SDS011;64406;50.024;14.492;2022-12-07T14:54:31;8.33;;;4.33;;
75787;SDS011;64406;50.024;14.492;2022-12-07T14:56:58;8.60;;;4.33;;
75787;SDS011;64406;50.024;14.492;2022-12-07T14:59:24;9.47;;;4.63;;
75787;SDS011;64406;50.024;14.492;2022-12-07T15:01:49;7.23;;;4.13;;
75787;SDS011;64406;50.024;14.492;2022-12-07T15:04:15;6.63;;;4.17;;
75787;SDS011;64406;50.024;14.492;2022-12-07T15:06:41;9.83;;;5.07;;
75787;SDS011;64406;50.024;14.492;2022-12-07T15:09:10;7.13;;;4.47;;
75787;SDS011;64406;50.024;14.492;2022-12-07T15:11:36;8.33;;;4.60;;
75787;SDS011;64406;50.024;14.492;2022-12-07T15:14:02;8.47;;;5.30;;
75787;SDS011;64406;50.024;14.492;2022-12-07T15:16:34;10.33;;;4.70;;
75787;SDS011;64406;50.024;14.492;2022-12-07T15:19:01;7.47;;;4.10;;
75787;SDS011;64406;50.024;14.492;2022-12-07T15:21:27;7.47;;;4.80;;
75787;SDS011;64406;50.024;14.492;2022-12-07T15:23:53;9.37;;;4.77;;
75787;SDS011;64406;50.024;14.492;2022-12-07T15:26:18;8.10;;;4.27;;
75787;SDS011;64406;50.024;14.492;2022-12-07T15:28:44;6.37;;;3.73;;
75787;SDS011;64406;50.024;14.492;2022-12-07T15:31:11;7.27;;;4.17;;
75787;SDS011;64406;50.024;14.492;2022-12-07T15:33:37;9.07;;;4.63;;
75787;SDS011;64406;50.024;14.492;2022-12-07T15:36:02;10.47;;;5.13;;
75787;SDS011;64406;50.024;14.492;2022-12-07T15:38:28;10.47;;;5.50;;
75787;SDS011;64406;50.024;14.492;2022-12-07T15:40:55;8.83;;;5.03;;
75787;SDS011;64406;50.024;14.492;2022-12-07T15:43:22;11.93;;;5.50;;
75787;SDS011;64406;50.024;14.492;2022-12-07T15:46:06;9.10;;;5.60;;
75787;SDS011;64406;50.024;14.492;2022-12-07T15:48:32;12.07;;;6.53;;
75787;SDS011;64406;50.024;14.492;2022-12-07T15:51:02;15.30;;;7.17;;
75787;SDS011;64406;50.024;14.492;2022-12-07T15:53:35;10.77;;;5.53;;
75787;SDS011;64406;50.024;14.492;2022-12-07T15:56:01;13.57;;;6.90;;
75787;SDS011;64406;50.024;14.492;2022-12-07T15:58:27;10.43;;;5.60;;
75787;SDS011;64406;50.024;14.492;2022-12-07T16:00:52;11.90;;;5.47;;
75787;SDS011;64406;50.024;14.492;2022-12-07T16:03:18;8.37;;;4.80;;
75787;SDS011;64406;50.024;14.492;2022-12-07T16:05:50;9.93;;;5.03;;
75787;SDS011;64406;50.024;14.492;2022-12-07T16:08:17;11.10;;;5.60;;
75787;SDS011;64406;50.024;14.492;2022-12-07T16:10:43;7.90;;;4.17;;
75787;SDS011;64406;50.024;14.492;2022-12-07T16:13:09;10.07;;;5.13;;
75787;SDS011;64406;50.024;14.492;2022-12-07T16:15:39;10.67;;;5.77;;
75787;SDS011;64406;50.024;14.492;2022-12-07T16:18:05;11.93;;;5.20;;
75787;SDS011;64406;50.024;14.492;2022-12-07T16:20:31;12.13;;;5.50;;
75787;SDS011;64406;50.024;14.492;2022-12-07T16:22:56;8.03;;;4.97;;